sensor_id;sensor_type;location;lat;lon;timestamp;pressure;altitude;pressure_sealevel;temperature;humidity
8585;BME280;7180;52.742;11.420;2022-08-14T00:00:46;101130.22;;;20.00;92.05
8585;BME280;7180;52.742;11.420;2022-08-14T00:03:24;101132.44;;;19.95;92.58
8585;BME280;7180;52.742;11.420;2022-08-14T00:05:50;101136.97;;;19.95;93.35
8585;BME280;7180;52.742;11.420;2022-08-14T00:08:15;101134.00;;;19.98;93.08
8585;BME280;7180;52.742;11.420;2022-08-14T00:10:42;101131.63;;;19.95;94.23
8585;BME280;7180;52.742;11.420;2022-08-14T00:13:08;101138.34;;;19.89;94.56
8585;BME280;7180;52.742;11.420;2022-08-14T00:15:37;101130.44;;;19.88;94.47
8585;BME280;7180;52.742;11.420;2022-08-14T00:18:03;101131.63;;;19.95;94.25
8585;BME280;7180;52.742;11.420;2022-08-14T00:20:32;101125.56;;;19.93;94.42
8585;BME280;7180;52.742;11.420;2022-08-14T00:22:58;101122.44;;;19.88;94.91
8585;BME280;7180;52.742;11.420;2022-08-14T00:25:25;101127.09;;;19.86;95.19
8585;BME280;7180;52.742;11.420;2022-08-14T00:27:51;101110.06;;;19.77;94.98
8585;BME280;7180;52.742;11.420;2022-08-14T00:30:16;101106.09;;;19.72;95.38
8585;BME280;7180;52.742;11.420;2022-08-14T00:32:42;101108.63;;;19.63;95.67
8585;BME280;7180;52.742;11.420;2022-08-14T00:35:08;101104.81;;;19.56;95.94
8585;BME280;7180;52.742;11.420;2022-08-14T00:37:37;101116.88;;;19.60;95.78
8585;BME280;7180;52.742;11.420;2022-08-14T00:40:03;101112.66;;;19.58;95.98
8585;BME280;7180;52.742;11.420;2022-08-14T00:42:29;101113.81;;;19.65;95.58
8585;BME280;7180;52.742;11.420;2022-08-14T00:44:55;101103.72;;;19.69;95.48
8585;BME280;7180;52.742;11.420;2022-08-14T00:47:21;101102.56;;;19.61;95.62
8585;BME280;7180;52.742;11.420;2022-08-14T00:49:49;101086.09;;;19.47;95.99
8585;BME280;7180;52.742;11.420;2022-08-14T00:52:16;101088.47;;;19.50;96.16
8585;BME280;7180;52.742;11.420;2022-08-14T00:54:42;101085.31;;;19.35;96.58
8585;BME280;7180;52.742;11.420;2022-08-14T00:57:08;101098.28;;;19.40;96.83
8585;BME280;7180;52.742;11.420;2022-08-14T00:59:34;101092.13;;;19.49;96.34
8585;BME280;7180;52.742;11.420;2022-08-14T01:02:00;101087.75;;;19.48;96.37
8585;BME280;7180;52.742;11.420;2022-08-14T01:04:28;101098.19;;;19.51;97.00
8585;BME280;7180;52.742;11.420;2022-08-14T01:06:56;101092.44;;;19.55;96.21
8585;BME280;7180;52.742;11.420;2022-08-14T01:09:21;101089.31;;;19.50;96.51
8585;BME280;7180;52.742;11.420;2022-08-14T01:11:50;101094.66;;;19.50;96.99
8585;BME280;7180;52.742;11.420;2022-08-14T01:14:17;101079.75;;;19.38;96.51
8585;BME280;7180;52.742;11.420;2022-08-14T01:16:43;101090.66;;;19.35;97.14
8585;BME280;7180;52.742;11.420;2022-08-14T01:19:08;101084.63;;;19.33;96.79
8585;BME280;7180;52.742;11.420;2022-08-14T01:21:53;101092.34;;;19.36;96.42
8585;BME280;7180;52.742;11.420;2022-08-14T01:24:19;101077.13;;;19.27;96.44
8585;BME280;7180;52.742;11.420;2022-08-14T01:26:45;101088.16;;;19.13;97.42
8585;BME280;7180;52.742;11.420;2022-08-14T01:29:11;101099.31;;;19.28;97.13
8585;BME280;7180;52.742;11.420;2022-08-14T01:31:37;101091.97;;;19.20;97.42
8585;BME280;7180;52.742;11.420;2022-08-14T01:34:11;101103.22;;;19.24;97.99
8585;BME280;7180;52.742;11.420;2022-08-14T01:36:36;101091.69;;;19.23;97.34
8585;BME280;7180;52.742;11.420;2022-08-14T01:39:13;101080.41;;;19.10;98.17
8585;BME280;7180;52.742;11.420;2022-08-14T01:41:45;101084.19;;;18.87;99.48
8585;BME280;7180;52.742;11.420;2022-08-14T01:44:13;101094.19;;;18.74;100.00
8585;BME280;7180;52.742;11.420;2022-08-14T01:46:41;101118.75;;;18.78;100.00
8585;BME280;7180;52.742;11.420;2022-08-14T01:49:10;101117.19;;;18.96;100.00
8585;BME280;7180;52.742;11.420;2022-08-14T01:51:37;101104.72;;;18.96;100.00
8585;BME280;7180;52.742;11.420;2022-08-14T01:54:15;101097.66;;;18.86;100.00
8585;BME280;7180;52.742;11.420;2022-08-14T01:56:44;101097.66;;;18.86;100.00
8585;BME280;7180;52.742;11.420;2022-08-14T02:01:51;101099.91;;;18.90;100.00
8585;BME280;7180;52.742;11.420;2022-08-14T02:04:18;101088.22;;;18.82;100.00
8585;BME280;7180;52.742;11.420;2022-08-14T02:06:45;101087.19;;;18.73;100.00
8585;BME280;7180;52.742;11.420;2022-08-14T02:09:11;101087.19;;;18.73;100.00
8585;BME280;7180;52.742;11.420;2022-08-14T02:11:37;101075.34;;;18.66;100.00
8585;BME280;7180;52.742;11.420;2022-08-14T02:14:06;101075.69;;;18.52;100.00
8585;BME280;7180;52.742;11.420;2022-08-14T02:16:36;101086.34;;;18.52;100.00
8585;BME280;7180;52.742;11.420;2022-08-14T02:19:07;101086.91;;;18.55;100.00
8585;BME280;7180;52.742;11.420;2022-08-14T02:21:34;101080.47;;;18.58;100.00
8585;BME280;7180;52.742;11.420;2022-08-14T02:24:02;101069.88;;;18.47;100.00
8585;BME280;7180;52.742;11.420;2022-08-14T02:26:30;101084.16;;;18.46;100.00
8585;BME280;7180;52.742;11.420;2022-08-14T02:29:08;101089.03;;;18.41;100.00
8585;BME280;7180;52.742;11.420;2022-08-14T02:31:46;101088.63;;;18.45;100.00
8585;BME280;7180;52.742;11.420;2022-08-14T02:34:21;101073.78;;;18.43;100.00
8585;BME280;7180;52.742;11.420;2022-08-14T02:36:49;101069.91;;;18.36;100.00
8585;BME280;7180;52.742;11.420;2022-08-14T02:39:16;101067.03;;;18.28;100.00
8585;BME280;7180;52.742;11.420;2022-08-14T02:41:41;101068.47;;;18.32;100.00
8585;BME280;7180;52.742;11.420;2022-08-14T02:44:08;101065.53;;;18.35;100.00
8585;BME280;7180;52.742;11.420;2022-08-14T02:46:35;101063.16;;;18.32;100.00
8585;BME280;7180;52.742;11.420;2022-08-14T02:49:01;101070.28;;;18.31;100.00
8585;BME280;7180;52.742;11.420;2022-08-14T02:51:27;101066.91;;;18.29;100.00
8585;BME280;7180;52.742;11.420;2022-08-14T02:53:54;101055.47;;;18.18;100.00
8585;BME280;7180;52.742;11.420;2022-08-14T02:56:20;101063.09;;;18.11;100.00
8585;BME280;7180;52.742;11.420;2022-08-14T02:58:47;101061.28;;;18.12;100.00
8585;BME280;7180;52.742;11.420;2022-08-14T03:01:14;101063.44;;;18.18;100.00
8585;BME280;7180;52.742;11.420;2022-08-14T03:06:13;101047.13;;;18.11;100.00
8585;BME280;7180;52.742;11.420;2022-08-14T03:08:40;101061.41;;;18.10;100.00
8585;BME280;7180;52.742;11.420;2022-08-14T03:11:07;101053.47;;;17.99;100.00
8585;BME280;7180;52.742;11.420;2022-08-14T03:13:35;101057.66;;;18.02;100.00
8585;BME280;7180;52.742;11.420;2022-08-14T03:16:03;101053.56;;;18.09;100.00
8585;BME280;7180;52.742;11.420;2022-08-14T03:18:28;101048.50;;;17.95;100.00
8585;BME280;7180;52.742;11.420;2022-08-14T03:20:53;101058.41;;;17.93;100.00
8585;BME280;7180;52.742;11.420;2022-08-14T03:23:19;101046.59;;;17.86;100.00
8585;BME280;7180;52.742;11.420;2022-08-14T03:25:45;101053.03;;;17.83;100.00
8585;BME280;7180;52.742;11.420;2022-08-14T03:28:11;101044.69;;;17.77;100.00
8585;BME280;7180;52.742;11.420;2022-08-14T03:30:37;101046.75;;;17.73;100.00
8585;BME280;7180;52.742;11.420;2022-08-14T03:33:03;101050.38;;;17.72;100.00
8585;BME280;7180;52.742;11.420;2022-08-14T03:35:29;101049.78;;;17.80;100.00
8585;BME280;7180;52.742;11.420;2022-08-14T03:38:03;101036.22;;;17.83;100.00
8585;BME280;7180;52.742;11.420;2022-08-14T03:40:28;101030.66;;;17.75;100.00
8585;BME280;7180;52.742;11.420;2022-08-14T03:42:53;101028.25;;;17.72;100.00
8585;BME280;7180;52.742;11.420;2022-08-14T03:45:19;101021.03;;;17.51;100.00
8585;BME280;7180;52.742;11.420;2022-08-14T03:47:44;101034.72;;;17.47;100.00
8585;BME280;7180;52.742;11.420;2022-08-14T03:50:10;101040.63;;;17.50;100.00
8585;BME280;7180;52.742;11.420;2022-08-14T03:52:36;101036.28;;;17.27;100.00
8585;BME280;7180;52.742;11.420;2022-08-14T03:55:04;101050.50;;;17.37;100.00
8585;BME280;7180;52.742;11.420;2022-08-14T03:57:31;101031.56;;;17.31;100.00
8585;BME280;7180;52.742;11.420;2022-08-14T03:59:57;101027.91;;;17.21;100.00
8585;BME280;7180;52.742;11.420;2022-08-14T04:02:28;101024.19;;;17.12;100.00
8585;BME280;7180;52.742;11.420;2022-08-14T04:04:53;101015.72;;;17.07;100.00
8585;BME280;7180;52.742;11.420;2022-08-14T04:07:18;101021.28;;;17.15;100.00
8585;BME280;7180;52.742;11.420;2022-08-14T04:09:43;101027.31;;;17.17;100.00
8585;BME280;7180;52.742;11.420;2022-08-14T04:12:09;101026.59;;;17.26;100.00
8585;BME280;7180;52.742;11.420;2022-08-14T04:14:34;101029.84;;;17.41;100.00
8585;BME280;7180;52.742;11.420;2022-08-14T04:17:00;101024.66;;;17.39;100.00
8585;BME280;7180;52.742;11.420;2022-08-14T04:19:25;101031.53;;;17.42;100.00
8585;BME280;7180;52.742;11.420;2022-08-14T04:21:50;101041.22;;;17.65;100.00
8585;BME280;7180;52.742;11.420;2022-08-14T04:24:16;101022.69;;;17.75;100.00
8585;BME280;7180;52.742;11.420;2022-08-14T04:26:42;101012.28;;;17.72;100.00
8585;BME280;7180;52.742;11.420;2022-08-14T04:29:09;101014.47;;;17.78;100.00
8585;BME280;7180;52.742;11.420;2022-08-14T04:31:37;101006.47;;;17.89;100.00
8585;BME280;7180;52.742;11.420;2022-08-14T04:34:03;100971.19;;;17.76;100.00
8585;BME280;7180;52.742;11.420;2022-08-14T04:36:30;100957.66;;;17.68;100.00
8585;BME280;7180;52.742;11.420;2022-08-14T04:38:55;100968.63;;;17.85;100.00
8585;BME280;7180;52.742;11.420;2022-08-14T04:41:39;100965.94;;;18.17;100.00
8585;BME280;7180;52.742;11.420;2022-08-14T04:44:23;100951.19;;;18.33;100.00
8585;BME280;7180;52.742;11.420;2022-08-14T04:46:48;100934.25;;;18.14;100.00
8585;BME280;7180;52.742;11.420;2022-08-14T04:49:32;100943.28;;;18.22;100.00
8585;BME280;7180;52.742;11.420;2022-08-14T04:51:58;100967.06;;;18.55;100.00
8585;BME280;7180;52.742;11.420;2022-08-14T04:54:25;100953.50;;;18.58;100.00
8585;BME280;7180;52.742;11.420;2022-08-14T04:56:51;100961.34;;;18.60;100.00
8585;BME280;7180;52.742;11.420;2022-08-14T04:59:17;100969.16;;;19.12;99.09
8585;BME280;7180;52.742;11.420;2022-08-14T05:01:43;100942.38;;;19.14;98.16
8585;BME280;7180;52.742;11.420;2022-08-14T05:04:09;100928.03;;;19.05;96.64
8585;BME280;7180;52.742;11.420;2022-08-14T05:06:36;100930.31;;;19.10;97.57
8585;BME280;7180;52.742;11.420;2022-08-14T05:09:02;100927.47;;;19.02;97.02
8585;BME280;7180;52.742;11.420;2022-08-14T05:11:28;100917.84;;;18.80;97.47
8585;BME280;7180;52.742;11.420;2022-08-14T05:14:00;100922.31;;;18.80;98.84
8585;BME280;7180;52.742;11.420;2022-08-14T05:16:26;100940.41;;;18.76;98.37
8585;BME280;7180;52.742;11.420;2022-08-14T05:18:56;100931.75;;;18.53;99.48
8585;BME280;7180;52.742;11.420;2022-08-14T05:21:21;100942.06;;;18.47;100.00
8585;BME280;7180;52.742;11.420;2022-08-14T05:23:47;100951.31;;;18.43;100.00
8585;BME280;7180;52.742;11.420;2022-08-14T05:26:13;100947.44;;;18.36;100.00
8585;BME280;7180;52.742;11.420;2022-08-14T05:28:41;100951.19;;;18.33;100.00
8585;BME280;7180;52.742;11.420;2022-08-14T05:31:10;100952.97;;;18.44;100.00
8585;BME280;7180;52.742;11.420;2022-08-14T05:33:36;100962.38;;;18.69;100.00
8585;BME280;7180;52.742;11.420;2022-08-14T05:36:06;100954.34;;;18.89;100.00
8585;BME280;7180;52.742;11.420;2022-08-14T05:38:35;100928.69;;;18.88;99.89
8585;BME280;7180;52.742;11.420;2022-08-14T05:41:03;100929.66;;;18.87;99.65
8585;BME280;7180;52.742;11.420;2022-08-14T05:43:29;100922.81;;;18.94;98.88
8585;BME280;7180;52.742;11.420;2022-08-14T05:45:55;100909.91;;;18.90;99.47
8585;BME280;7180;52.742;11.420;2022-08-14T05:48:21;100924.13;;;19.09;99.79
8585;BME280;7180;52.742;11.420;2022-08-14T05:50:47;100933.34;;;19.35;98.42
8585;BME280;7180;52.742;11.420;2022-08-14T05:53:12;100917.25;;;19.66;96.85
8585;BME280;7180;52.742;11.420;2022-08-14T05:55:37;100901.38;;;19.83;94.99
8585;BME280;7180;52.742;11.420;2022-08-14T05:58:05;100888.31;;;19.80;95.18
8585;BME280;7180;52.742;11.420;2022-08-14T06:00:38;100889.84;;;20.02;94.90
8585;BME280;7180;52.742;11.420;2022-08-14T06:03:07;100881.41;;;19.97;94.99
8585;BME280;7180;52.742;11.420;2022-08-14T06:05:33;100889.13;;;20.19;94.23
8585;BME280;7180;52.742;11.420;2022-08-14T06:07:59;100893.31;;;20.40;94.12
8585;BME280;7180;52.742;11.420;2022-08-14T06:10:27;100889.28;;;20.63;93.27
8585;BME280;7180;52.742;11.420;2022-08-14T06:12:53;100882.16;;;20.82;91.56
8585;BME280;7180;52.742;11.420;2022-08-14T06:15:18;100863.91;;;20.77;91.47
8585;BME280;7180;52.742;11.420;2022-08-14T06:17:51;100859.47;;;20.68;91.58
8585;BME280;7180;52.742;11.420;2022-08-14T06:20:17;100877.06;;;20.98;91.26
8585;BME280;7180;52.742;11.420;2022-08-14T06:22:44;100871.38;;;21.10;90.38
8585;BME280;7180;52.742;11.420;2022-08-14T06:25:11;100865.91;;;21.29;89.78
8585;BME280;7180;52.742;11.420;2022-08-14T06:27:39;100862.31;;;21.56;87.56
8585;BME280;7180;52.742;11.420;2022-08-14T06:30:11;100859.13;;;21.88;86.39
8585;BME280;7180;52.742;11.420;2022-08-14T06:32:36;100862.72;;;22.22;84.20
8585;BME280;7180;52.742;11.420;2022-08-14T06:35:06;100870.16;;;22.95;81.85
8585;BME280;7180;52.742;11.420;2022-08-14T06:37:50;100846.69;;;23.79;78.71
8585;BME280;7180;52.742;11.420;2022-08-14T06:40:19;100862.16;;;24.80;75.58
8585;BME280;7180;52.742;11.420;2022-08-14T06:42:44;100854.38;;;26.14;70.80
8585;BME280;7180;52.742;11.420;2022-08-14T06:45:10;100801.25;;;26.52;67.98
8585;BME280;7180;52.742;11.420;2022-08-14T06:47:37;100830.19;;;27.44;67.11
8585;BME280;7180;52.742;11.420;2022-08-14T06:50:06;100800.16;;;27.75;65.64
8585;BME280;7180;52.742;11.420;2022-08-14T06:52:32;100765.13;;;27.03;66.15
8585;BME280;7180;52.742;11.420;2022-08-14T06:54:57;100750.75;;;26.96;65.87
8585;BME280;7180;52.742;11.420;2022-08-14T06:57:24;100781.84;;;27.49;65.21
8585;BME280;7180;52.742;11.420;2022-08-14T06:59:50;100774.47;;;27.92;63.82
8585;BME280;7180;52.742;11.420;2022-08-14T07:02:15;100768.84;;;27.87;64.28
8585;BME280;7180;52.742;11.420;2022-08-14T07:04:59;100739.16;;;27.38;65.07
8585;BME280;7180;52.742;11.420;2022-08-14T07:07:43;100709.88;;;26.99;65.42
8585;BME280;7180;52.742;11.420;2022-08-14T07:10:09;100699.53;;;25.88;69.73
8585;BME280;7180;52.742;11.420;2022-08-14T07:12:35;100711.91;;;25.45;71.50
8585;BME280;7180;52.742;11.420;2022-08-14T07:15:01;100716.47;;;25.22;72.66
8585;BME280;7180;52.742;11.420;2022-08-14T07:17:26;100757.41;;;25.40;72.74
8585;BME280;7180;52.742;11.420;2022-08-14T07:19:52;100809.69;;;26.49;70.83
8585;BME280;7180;52.742;11.420;2022-08-14T07:22:17;100821.66;;;27.40;69.37
8585;BME280;7180;52.742;11.420;2022-08-14T07:24:43;100783.16;;;28.08;65.22
8585;BME280;7180;52.742;11.420;2022-08-14T07:27:08;100723.75;;;27.59;65.59
8585;BME280;7180;52.742;11.420;2022-08-14T07:29:33;100749.22;;;27.29;66.75
8585;BME280;7180;52.742;11.420;2022-08-14T07:31:59;100712.78;;;26.62;68.38
8585;BME280;7180;52.742;11.420;2022-08-14T07:34:24;100696.91;;;26.38;68.16
8585;BME280;7180;52.742;11.420;2022-08-14T07:36:49;100745.34;;;26.46;69.01
8585;BME280;7180;52.742;11.420;2022-08-14T07:39:15;100724.84;;;26.16;69.35
8585;BME280;7180;52.742;11.420;2022-08-14T07:41:40;100760.16;;;26.35;69.48
8585;BME280;7180;52.742;11.420;2022-08-14T07:44:07;100757.50;;;26.56;69.39
8585;BME280;7180;52.742;11.420;2022-08-14T07:46:35;100754.72;;;26.64;69.46
8585;BME280;7180;52.742;11.420;2022-08-14T07:49:00;100740.78;;;26.61;69.24
8585;BME280;7180;52.742;11.420;2022-08-14T07:51:25;100761.78;;;27.01;68.27
8585;BME280;7180;52.742;11.420;2022-08-14T07:53:51;100747.28;;;27.02;67.38
8585;BME280;7180;52.742;11.420;2022-08-14T07:56:16;100742.47;;;27.19;67.11
8585;BME280;7180;52.742;11.420;2022-08-14T07:58:41;100717.84;;;27.07;66.77
8585;BME280;7180;52.742;11.420;2022-08-14T08:01:07;100711.63;;;26.86;67.38
8585;BME280;7180;52.742;11.420;2022-08-14T08:03:33;100733.41;;;26.84;68.72
8585;BME280;7180;52.742;11.420;2022-08-14T08:06:00;100727.34;;;26.82;68.04
8585;BME280;7180;52.742;11.420;2022-08-14T08:08:26;100747.03;;;27.18;67.12
8585;BME280;7180;52.742;11.420;2022-08-14T08:10:55;100706.28;;;27.13;66.36
8585;BME280;7180;52.742;11.420;2022-08-14T08:13:20;100703.72;;;26.84;67.11
8585;BME280;7180;52.742;11.420;2022-08-14T08:15:51;100705.88;;;26.74;68.94
8585;BME280;7180;52.742;11.420;2022-08-14T08:18:24;100749.13;;;27.23;68.12
8585;BME280;7180;52.742;11.420;2022-08-14T08:20:53;100723.44;;;27.27;67.67
8585;BME280;7180;52.742;11.420;2022-08-14T08:23:20;100727.75;;;27.42;66.90
8585;BME280;7180;52.742;11.420;2022-08-14T08:25:48;100732.41;;;27.55;66.22
8585;BME280;7180;52.742;11.420;2022-08-14T08:28:16;100709.13;;;27.47;66.07
8585;BME280;7180;52.742;11.420;2022-08-14T08:30:47;100685.72;;;27.12;66.81
8585;BME280;7180;52.742;11.420;2022-08-14T08:33:12;100681.47;;;27.03;67.53
8585;BME280;7180;52.742;11.420;2022-08-14T08:35:41;100700.09;;;27.19;67.42
8585;BME280;7180;52.742;11.420;2022-08-14T08:38:12;100694.22;;;27.09;67.73
8585;BME280;7180;52.742;11.420;2022-08-14T08:40:47;100701.84;;;27.27;66.08
8585;BME280;7180;52.742;11.420;2022-08-14T08:43:26;100717.13;;;27.62;66.55
8585;BME280;7180;52.742;11.420;2022-08-14T08:45:53;100670.13;;;27.56;65.32
8585;BME280;7180;52.742;11.420;2022-08-14T08:48:20;100664.88;;;27.27;65.88
8585;BME280;7180;52.742;11.420;2022-08-14T08:50:47;100681.75;;;27.57;64.38
8585;BME280;7180;52.742;11.420;2022-08-14T08:53:12;100686.34;;;27.56;64.73
8585;BME280;7180;52.742;11.420;2022-08-14T08:55:40;100695.03;;;27.86;63.85
8585;BME280;7180;52.742;11.420;2022-08-14T08:58:08;100661.94;;;27.78;64.04
8585;BME280;7180;52.742;11.420;2022-08-14T09:00:36;100661.91;;;27.71;63.97
8585;BME280;7180;52.742;11.420;2022-08-14T09:03:08;100683.72;;;27.97;64.21
8585;BME280;7180;52.742;11.420;2022-08-14T09:05:35;100672.09;;;28.03;63.67
8585;BME280;7180;52.742;11.420;2022-08-14T09:08:27;100645.53;;;27.79;64.05
8585;BME280;7180;52.742;11.420;2022-08-14T09:10:54;100633.56;;;27.60;64.27
8585;BME280;7180;52.742;11.420;2022-08-14T09:13:20;100638.19;;;27.67;64.51
8585;BME280;7180;52.742;11.420;2022-08-14T09:15:48;100636.03;;;27.90;63.24
8585;BME280;7180;52.742;11.420;2022-08-14T09:18:15;100630.16;;;27.80;63.97
8585;BME280;7180;52.742;11.420;2022-08-14T09:20:45;100626.25;;;27.89;63.83
8585;BME280;7180;52.742;11.420;2022-08-14T09:23:12;100649.22;;;28.06;64.10
8585;BME280;7180;52.742;11.420;2022-08-14T09:25:40;100663.50;;;28.34;64.12
8585;BME280;7180;52.742;11.420;2022-08-14T09:28:07;100619.75;;;28.17;63.21
8585;BME280;7180;52.742;11.420;2022-08-14T09:30:36;100636.03;;;28.30;63.55
8585;BME280;7180;52.742;11.420;2022-08-14T09:33:48;100589.13;;;28.04;62.64
8585;BME280;7180;52.742;11.420;2022-08-14T09:36:11;100582.28;;;28.01;61.96
8585;BME280;7180;52.742;11.420;2022-08-14T09:41:33;100583.13;;;28.02;61.55
8585;BME280;7180;52.742;11.420;2022-08-14T09:44:05;100583.13;;;28.15;61.33
8585;BME280;7180;52.742;11.420;2022-08-14T09:46:33;100601.69;;;28.31;61.99
8585;BME280;7180;52.742;11.420;2022-08-14T09:48:59;100589.00;;;28.31;61.71
8585;BME280;7180;52.742;11.420;2022-08-14T09:51:25;100597.16;;;28.44;61.44
8585;BME280;7180;52.742;11.420;2022-08-14T09:54:18;100576.38;;;28.45;60.78
8585;BME280;7180;52.742;11.420;2022-08-14T09:56:45;100586.81;;;28.54;61.35
8585;BME280;7180;52.742;11.420;2022-08-14T09:59:13;100570.16;;;28.71;59.54
8585;BME280;7180;52.742;11.420;2022-08-14T10:01:40;100534.53;;;28.41;60.38
8585;BME280;7180;52.742;11.420;2022-08-14T10:04:36;100532.88;;;28.33;60.00
8585;BME280;7180;52.742;11.420;2022-08-14T10:07:04;100516.00;;;28.31;60.10
8585;BME280;7180;52.742;11.420;2022-08-14T10:09:30;100545.78;;;28.38;60.61
8585;BME280;7180;52.742;11.420;2022-08-14T10:11:57;100564.56;;;28.66;60.21
8585;BME280;7180;52.742;11.420;2022-08-14T10:14:26;100532.50;;;28.63;59.14
8585;BME280;7180;52.742;11.420;2022-08-14T10:16:56;100525.38;;;28.35;59.89
8585;BME280;7180;52.742;11.420;2022-08-14T10:19:25;100514.56;;;28.35;60.00
8585;BME280;7180;52.742;11.420;2022-08-14T10:22:00;100529.53;;;28.31;60.10
8585;BME280;7180;52.742;11.420;2022-08-14T10:24:32;100547.69;;;28.57;60.09
8585;BME280;7180;52.742;11.420;2022-08-14T10:26:59;100545.84;;;28.57;60.49
8585;BME280;7180;52.742;11.420;2022-08-14T10:29:37;100544.56;;;28.80;59.52
8585;BME280;7180;52.742;11.420;2022-08-14T10:32:03;100535.84;;;28.71;60.43
8585;BME280;7180;52.742;11.420;2022-08-14T10:34:35;100529.16;;;28.67;60.92
8585;BME280;7180;52.742;11.420;2022-08-14T10:37:03;100526.28;;;28.55;61.00
8585;BME280;7180;52.742;11.420;2022-08-14T10:39:31;100545.19;;;28.82;59.55
8585;BME280;7180;52.742;11.420;2022-08-14T10:42:01;100510.03;;;28.55;60.32
8585;BME280;7180;52.742;11.420;2022-08-14T10:44:47;100516.28;;;28.56;60.46
8585;BME280;7180;52.742;11.420;2022-08-14T10:47:15;100510.03;;;28.55;60.99
8585;BME280;7180;52.742;11.420;2022-08-14T10:49:55;100523.56;;;28.75;60.34
8585;BME280;7180;52.742;11.420;2022-08-14T10:52:23;100535.03;;;28.90;60.34
8585;BME280;7180;52.742;11.420;2022-08-14T10:54:50;100514.81;;;28.99;59.89
8585;BME280;7180;52.742;11.420;2022-08-14T10:57:24;100501.66;;;29.09;58.46
8585;BME280;7180;52.742;11.420;2022-08-14T10:59:57;100523.53;;;29.01;60.32
8585;BME280;7180;52.742;11.420;2022-08-14T11:02:34;100512.50;;;29.09;60.06
8585;BME280;7180;52.742;11.420;2022-08-14T11:05:11;100508.34;;;28.87;60.47
8585;BME280;7180;52.742;11.420;2022-08-14T11:08:01;100499.19;;;28.82;60.87
8585;BME280;7180;52.742;11.420;2022-08-14T11:10:42;100511.25;;;28.92;59.88
8585;BME280;7180;52.742;11.420;2022-08-14T11:13:09;100496.28;;;28.90;60.10
8585;BME280;7180;52.742;11.420;2022-08-14T11:15:35;100496.25;;;29.09;59.01
8585;BME280;7180;52.742;11.420;2022-08-14T11:18:01;100525.63;;;29.32;58.89
8585;BME280;7180;52.742;11.420;2022-08-14T11:20:28;100493.66;;;29.47;57.73
8585;BME280;7180;52.742;11.420;2022-08-14T11:22:56;100496.97;;;29.55;57.64
8585;BME280;7180;52.742;11.420;2022-08-14T11:25:26;100493.22;;;29.56;57.41
8585;BME280;7180;52.742;11.420;2022-08-14T11:27:56;100452.75;;;29.61;55.89
8585;BME280;7180;52.742;11.420;2022-08-14T11:30:24;100457.28;;;29.81;55.97
8585;BME280;7180;52.742;11.420;2022-08-14T11:32:51;100427.91;;;29.78;55.16
8585;BME280;7180;52.742;11.420;2022-08-14T11:35:18;100400.97;;;29.83;54.45
8585;BME280;7180;52.742;11.420;2022-08-14T11:38:04;100420.31;;;30.17;54.15
8585;BME280;7180;52.742;11.420;2022-08-14T11:40:32;100397.06;;;30.03;53.97
8585;BME280;7180;52.742;11.420;2022-08-14T11:43:02;100358.59;;;29.88;53.75
8585;BME280;7180;52.742;11.420;2022-08-14T11:45:30;100366.34;;;29.85;54.38
8585;BME280;7180;52.742;11.420;2022-08-14T11:47:57;100388.94;;;30.03;55.02
8585;BME280;7180;52.742;11.420;2022-08-14T11:50:26;100387.94;;;30.22;54.20
8585;BME280;7180;52.742;11.420;2022-08-14T11:52:52;100401.72;;;30.27;54.72
8585;BME280;7180;52.742;11.420;2022-08-14T11:55:21;100372.50;;;30.47;53.65
8585;BME280;7180;52.742;11.420;2022-08-14T11:58:04;100356.63;;;30.51;53.68
8585;BME280;7180;52.742;11.420;2022-08-14T12:00:30;100347.88;;;30.49;53.60
8585;BME280;7180;52.742;11.420;2022-08-14T12:02:59;100365.22;;;30.91;52.59
8585;BME280;7180;52.742;11.420;2022-08-14T12:05:36;100317.47;;;30.83;52.21
8585;BME280;7180;52.742;11.420;2022-08-14T12:08:07;100336.25;;;30.85;51.85
8585;BME280;7180;52.742;11.420;2022-08-14T12:10:34;100314.28;;;31.04;51.56
8585;BME280;7180;52.742;11.420;2022-08-14T12:13:12;100317.53;;;30.95;52.09
8585;BME280;7180;52.742;11.420;2022-08-14T12:15:40;100314.50;;;31.32;51.07
8585;BME280;7180;52.742;11.420;2022-08-14T12:18:06;100321.91;;;31.43;50.53
8585;BME280;7180;52.742;11.420;2022-08-14T12:20:34;100328.00;;;31.69;50.70
8585;BME280;7180;52.742;11.420;2022-08-14T12:23:02;100246.91;;;31.42;50.55
8585;BME280;7180;52.742;11.420;2022-08-14T12:25:28;100307.56;;;31.78;50.64
8585;BME280;7180;52.742;11.420;2022-08-14T12:27:55;100326.09;;;31.99;50.35
8585;BME280;7180;52.742;11.420;2022-08-14T12:30:30;100254.75;;;31.74;50.47
8585;BME280;7180;52.742;11.420;2022-08-14T12:32:58;100296.88;;;31.94;50.03
8585;BME280;7180;52.742;11.420;2022-08-14T12:35:43;100236.28;;;31.52;50.71
8585;BME280;7180;52.742;11.420;2022-08-14T12:38:10;100224.84;;;31.32;50.88
8585;BME280;7180;52.742;11.420;2022-08-14T12:40:52;100222.72;;;31.34;50.72
8585;BME280;7180;52.742;11.420;2022-08-14T12:43:18;100217.78;;;31.31;51.20
8585;BME280;7180;52.742;11.420;2022-08-14T12:45:47;100213.41;;;31.30;50.61
8585;BME280;7180;52.742;11.420;2022-08-14T12:48:16;100186.22;;;31.19;50.94
8585;BME280;7180;52.742;11.420;2022-08-14T12:50:43;100173.06;;;31.04;50.47
8585;BME280;7180;52.742;11.420;2022-08-14T12:53:10;100137.47;;;30.83;50.79
8585;BME280;7180;52.742;11.420;2022-08-14T12:55:37;100144.81;;;30.64;51.01
8585;BME280;7180;52.742;11.420;2022-08-14T12:58:04;100188.97;;;30.71;51.94
8585;BME280;7180;52.742;11.420;2022-08-14T13:00:36;100214.28;;;31.01;51.27
8585;BME280;7180;52.742;11.420;2022-08-14T13:03:03;100196.59;;;31.22;50.34
8585;BME280;7180;52.742;11.420;2022-08-14T13:05:33;100178.91;;;31.19;50.35
8585;BME280;7180;52.742;11.420;2022-08-14T13:08:01;100175.31;;;31.48;49.56
8585;BME280;7180;52.742;11.420;2022-08-14T13:10:31;100152.19;;;31.58;49.32
8585;BME280;7180;52.742;11.420;2022-08-14T13:12:57;100199.56;;;31.73;50.04